createdAt,value
2023-04-01T00:01:16.202Z,90.05
2023-04-01T00:03:46.331Z,90.03
2023-04-01T00:06:17.797Z,90.30
2023-04-01T00:08:46.455Z,90.00
2023-04-01T00:11:15.873Z,90.09
2023-04-01T00:13:44.889Z,90.54
2023-04-01T00:16:21.864Z,90.98
2023-04-01T00:18:53.553Z,91.60
2023-04-01T00:21:22.839Z,91.94
2023-04-01T00:23:52.522Z,92.41
2023-04-01T00:26:22.732Z,92.67
2023-04-01T00:28:51.959Z,92.61
2023-04-01T00:31:20.812Z,93.01
2023-04-01T00:33:49.081Z,93.25
2023-04-01T00:36:22.465Z,92.71
2023-04-01T00:38:51.290Z,92.20
2023-04-01T00:41:22.540Z,92.15
2023-04-01T00:43:53.543Z,92.08
2023-04-01T00:46:21.995Z,92.79
2023-04-01T00:48:55.240Z,93.26
2023-04-01T00:51:31.320Z,93.81
2023-04-01T00:54:02.618Z,94.00
2023-04-01T00:56:36.724Z,94.22
2023-04-01T00:59:11.932Z,94.74
2023-04-01T01:01:40.281Z,94.89
2023-04-01T01:04:08.745Z,94.63
2023-04-01T01:06:53.623Z,94.13
2023-04-01T01:09:37.936Z,93.97
2023-04-01T01:12:15.320Z,93.82
2023-04-01T01:15:02.251Z,93.70
2023-04-01T01:17:49.939Z,93.62
2023-04-01T01:21:01.350Z,93.90
2023-04-01T01:24:10.389Z,94.00
2023-04-01T01:26:59.631Z,94.45
2023-04-01T01:29:47.310Z,94.69
2023-04-01T01:32:32.745Z,94.89
2023-04-01T01:35:18.797Z,94.78
2023-04-01T01:37:50.950Z,95.13
2023-04-01T01:40:20.347Z,95.04
2023-04-01T01:42:53.942Z,94.86
2023-04-01T01:45:27.480Z,94.85
2023-04-01T01:47:58.953Z,95.20
2023-04-01T01:50:30.220Z,94.81
2023-04-01T01:53:07.719Z,94.72
2023-04-01T01:55:38.775Z,94.88
2023-04-01T01:58:16.267Z,94.63
2023-04-01T02:00:50.591Z,94.26
2023-04-01T02:03:23.434Z,93.94
2023-04-01T02:05:58.019Z,92.65
2023-04-01T02:08:34.305Z,92.38
2023-04-01T02:11:08.913Z,91.87
2023-04-01T02:13:48.120Z,91.87
2023-04-01T02:16:23.019Z,92.20
2023-04-01T02:18:55.615Z,91.12
2023-04-01T02:21:32.634Z,90.19
2023-04-01T02:24:04.338Z,89.91
2023-04-01T02:26:32.961Z,90.48
2023-04-01T02:29:04.726Z,89.93
2023-04-01T02:31:34.607Z,89.87
2023-04-01T02:34:05.014Z,89.06
2023-04-01T02:36:36.830Z,88.96
2023-04-01T02:39:07.047Z,89.29
2023-04-01T02:41:41.568Z,88.95
2023-04-01T02:44:10.548Z,89.29
2023-04-01T02:46:39.643Z,89.65
2023-04-01T02:49:08.508Z,88.93
2023-04-01T02:51:38.212Z,88.02
2023-04-01T02:54:06.698Z,87.11
2023-04-01T02:56:34.850Z,87.08
2023-04-01T02:59:03.102Z,86.22
2023-04-01T03:01:31.224Z,86.56
2023-04-01T03:03:59.489Z,86.89
2023-04-01T03:06:27.622Z,87.54
2023-04-01T03:08:57.286Z,87.84
2023-04-01T03:11:27.141Z,87.45
2023-04-01T03:13:55.240Z,87.44
2023-04-01T03:16:23.408Z,87.83
2023-04-01T03:18:53.517Z,88.40
2023-04-01T03:21:24.407Z,88.62
2023-04-01T03:23:53.271Z,89.00
2023-04-01T03:26:22.808Z,89.02
2023-04-01T03:28:51.087Z,89.28
2023-04-01T03:31:20.393Z,89.32
2023-04-01T03:33:49.999Z,89.38
2023-04-01T03:36:18.308Z,89.21
2023-04-01T03:38:47.359Z,88.80
2023-04-01T03:41:17.520Z,88.98
2023-04-01T03:43:47.414Z,89.21
2023-04-01T03:46:20.526Z,89.50
2023-04-01T03:48:48.854Z,89.54
2023-04-01T03:51:17.152Z,89.77
2023-04-01T03:53:45.282Z,89.93
2023-04-01T03:56:13.777Z,90.29
2023-04-01T03:58:41.898Z,90.28
2023-04-01T04:01:21.596Z,90.59
2023-04-01T04:03:51.040Z,90.46
2023-04-01T04:06:21.466Z,90.61
2023-04-01T04:08:49.662Z,90.77
2023-04-01T04:11:18.636Z,89.87
2023-04-01T04:13:48.697Z,89.54
2023-04-01T04:16:19.306Z,90.00
2023-04-01T04:18:47.429Z,90.13
2023-04-01T04:21:16.988Z,89.70
2023-04-01T04:23:45.848Z,89.09
2023-04-01T04:26:17.039Z,89.22
2023-04-01T04:28:45.116Z,90.18
2023-04-01T04:31:13.332Z,90.81
2023-04-01T04:33:42.830Z,90.18
2023-04-01T04:36:11.355Z,90.52
2023-04-01T04:38:39.653Z,90.88
2023-04-01T04:41:12.822Z,91.19
2023-04-01T04:43:41.584Z,91.56
2023-04-01T04:46:10.535Z,91.80
2023-04-01T04:48:39.055Z,92.03
2023-04-01T04:51:08.613Z,92.16
2023-04-01T04:53:36.729Z,92.10
2023-04-01T04:56:04.859Z,91.18
2023-04-01T04:58:33.045Z,90.52
2023-04-01T05:01:01.277Z,90.51
2023-04-01T05:03:29.479Z,90.25
2023-04-01T05:05:57.727Z,90.33
2023-04-01T05:08:27.208Z,90.59
2023-04-01T05:10:55.876Z,90.44
2023-04-01T05:13:24.285Z,90.41
2023-04-01T05:15:52.431Z,90.67
2023-04-01T05:18:20.785Z,90.23
2023-04-01T05:20:50.329Z,90.07
2023-04-01T05:23:18.939Z,90.37
2023-04-01T05:25:48.755Z,90.74
2023-04-01T05:28:17.237Z,90.42
2023-04-01T05:30:46.240Z,90.07
2023-04-01T05:33:15.675Z,89.41
2023-04-01T05:35:43.968Z,89.02
2023-04-01T05:38:12.081Z,89.02
2023-04-01T05:40:40.355Z,87.73
2023-04-01T05:43:10.089Z,85.75
2023-04-01T05:45:38.438Z,84.60
2023-04-01T05:48:07.135Z,85.54
2023-04-01T05:50:35.446Z,85.42
2023-04-01T05:53:03.532Z,85.77
2023-04-01T05:55:31.992Z,86.11
2023-04-01T05:58:00.213Z,84.69
2023-04-01T06:00:29.742Z,84.85
2023-04-01T06:03:00.644Z,85.38
2023-04-01T06:05:32.325Z,84.60
2023-04-01T06:08:07.862Z,84.27
2023-04-01T06:10:55.028Z,84.51
2023-04-01T06:13:45.365Z,84.55
2023-04-01T06:16:29.314Z,85.11
2023-04-01T06:19:13.400Z,85.17
2023-04-01T06:22:30.098Z,84.93
2023-04-01T06:25:36.856Z,84.55
2023-04-01T06:28:47.036Z,83.92
2023-04-01T06:31:37.388Z,84.16
2023-04-01T06:34:29.607Z,83.55
2023-04-01T06:37:25.537Z,82.46
2023-04-01T06:40:19.540Z,81.67
2023-04-01T06:43:11.445Z,80.16
2023-04-01T06:45:52.830Z,80.57
2023-04-01T06:48:47.331Z,81.07
2023-04-01T06:51:33.870Z,80.88
2023-04-01T06:54:11.213Z,80.18
2023-04-01T06:56:44.842Z,79.11
2023-04-01T06:59:19.577Z,80.13
2023-04-01T07:01:53.685Z,78.89
2023-04-01T07:04:29.866Z,78.13
2023-04-01T07:07:03.660Z,77.48
2023-04-01T07:09:41.927Z,77.92
2023-04-01T07:12:24.867Z,77.90
2023-04-01T07:14:58.206Z,77.98
2023-04-01T07:17:33.262Z,78.18
2023-04-01T07:20:13.746Z,77.51
2023-04-01T07:22:46.816Z,75.43
2023-04-01T07:25:18.501Z,73.26
2023-04-01T07:27:47.854Z,71.31
2023-04-01T07:30:19.690Z,72.41
2023-04-01T07:32:58.231Z,72.12
2023-04-01T07:35:40.289Z,70.15
2023-04-01T07:38:26.940Z,70.24
2023-04-01T07:41:08.734Z,70.59
2023-04-01T07:44:03.655Z,71.18
2023-04-01T07:47:00.167Z,71.38
2023-04-01T07:49:41.112Z,69.99
2023-04-01T07:52:26.801Z,70.31
2023-04-01T07:55:04.968Z,69.69
2023-04-01T07:57:42.664Z,69.64
2023-04-01T08:00:20.793Z,68.89
2023-04-01T08:03:16.955Z,68.72
2023-04-01T08:05:57.615Z,69.17
2023-04-01T08:08:42.944Z,68.26
2023-04-01T08:11:27.404Z,69.46
2023-04-01T08:14:11.202Z,69.04
2023-04-01T08:16:50.196Z,68.98
2023-04-01T08:19:33.818Z,69.78
2023-04-01T08:22:14.339Z,68.49
2023-04-01T08:24:47.921Z,68.41
2023-04-01T08:27:24.541Z,68.22
2023-04-01T08:29:59.338Z,65.16
2023-04-01T08:32:32.395Z,66.10
2023-04-01T08:35:11.824Z,65.25
2023-04-01T08:37:43.878Z,64.78
2023-04-01T08:40:41.272Z,65.50
2023-04-01T08:43:18.531Z,64.32
2023-04-01T08:46:19.154Z,65.06
2023-04-01T08:49:12.582Z,64.46
2023-04-01T08:52:26.116Z,64.15
2023-04-01T08:55:34.349Z,62.51
2023-04-01T08:58:36.597Z,64.69
2023-04-01T09:01:23.737Z,65.16
2023-04-01T09:04:42.095Z,64.41
2023-04-01T09:07:31.889Z,64.11
2023-04-01T09:10:42.032Z,64.54
2023-04-01T09:13:31.414Z,64.38
2023-04-01T09:16:30.156Z,64.95
2023-04-01T09:19:30.777Z,64.69
2023-04-01T09:22:22.566Z,64.66
2023-04-01T09:25:33.017Z,62.98
2023-04-01T09:28:13.525Z,60.97
2023-04-01T09:31:16.002Z,61.61
2023-04-01T09:34:29.810Z,62.97
2023-04-01T09:37:20.532Z,63.56
2023-04-01T09:40:12.210Z,61.80
2023-04-01T09:43:18.576Z,62.45
2023-04-01T09:46:00.494Z,62.46
2023-04-01T09:49:08.435Z,61.62
2023-04-01T09:51:47.164Z,62.93
2023-04-01T09:54:34.443Z,63.50
2023-04-01T09:57:44.455Z,62.94
2023-04-01T10:01:26.729Z,62.29
2023-04-01T10:04:34.073Z,61.71
2023-04-01T10:08:08.765Z,63.29
2023-04-01T10:11:17.722Z,63.58
2023-04-01T10:14:41.265Z,63.92
2023-04-01T10:17:40.542Z,64.85
2023-04-01T10:20:47.928Z,66.34
2023-04-01T10:23:39.718Z,65.88
2023-04-01T10:26:46.376Z,66.66
2023-04-01T10:29:43.675Z,67.94
2023-04-01T10:32:49.837Z,68.60
2023-04-01T10:35:48.116Z,69.37
2023-04-01T10:39:12.449Z,69.76
2023-04-01T10:42:31.338Z,69.93
2023-04-01T10:45:55.679Z,70.36
2023-04-01T10:49:12.282Z,70.66
2023-04-01T10:52:36.790Z,69.04
2023-04-01T10:55:38.542Z,69.66
2023-04-01T10:58:58.605Z,70.34
2023-04-01T11:02:38.212Z,70.67
2023-04-01T11:06:13.561Z,70.47
2023-04-01T11:09:27.394Z,69.98
2023-04-01T11:12:39.205Z,69.48
2023-04-01T11:15:39.527Z,69.26
2023-04-01T11:18:49.279Z,68.83
2023-04-01T11:22:11.243Z,68.85
2023-04-01T11:25:19.535Z,68.88
2023-04-01T11:28:39.659Z,66.75
2023-04-01T11:31:37.278Z,67.44
2023-04-01T11:34:23.040Z,67.96
2023-04-01T11:37:09.046Z,67.01
2023-04-01T11:39:57.074Z,67.00
2023-04-01T11:42:43.136Z,68.57
2023-04-01T11:45:31.439Z,68.50
2023-04-01T11:48:25.774Z,67.30
2023-04-01T11:51:27.555Z,63.41
2023-04-01T11:54:14.010Z,61.37
2023-04-01T11:57:07.454Z,61.06
2023-04-01T12:00:08.352Z,62.42
2023-04-01T12:02:56.011Z,64.37
2023-04-01T12:05:44.125Z,66.76
2023-04-01T12:08:41.208Z,69.25
2023-04-01T12:11:26.106Z,70.14
2023-04-01T12:14:01.807Z,70.85
2023-04-01T12:16:51.602Z,71.35
2023-04-01T12:19:34.748Z,69.65
2023-04-01T12:22:31.289Z,70.46
2023-04-01T12:25:24.776Z,69.25
2023-04-01T12:28:11.608Z,69.52
2023-04-01T12:30:57.828Z,70.50
2023-04-01T12:33:55.434Z,69.52
2023-04-01T12:36:51.345Z,67.61
2023-04-01T12:39:46.592Z,68.18
2023-04-01T12:42:38.152Z,67.90
2023-04-01T12:45:32.240Z,67.82
2023-04-01T12:48:56.701Z,68.91
2023-04-01T12:51:53.181Z,66.53
2023-04-01T12:54:50.905Z,66.44
2023-04-01T12:58:03.100Z,66.58
2023-04-01T13:00:50.882Z,66.82
2023-04-01T13:03:45.992Z,66.19
2023-04-01T13:06:45.306Z,67.65
2023-04-01T13:09:32.195Z,65.98
2023-04-01T13:12:38.531Z,66.96
2023-04-01T13:15:30.584Z,65.38
2023-04-01T13:18:17.091Z,66.08
2023-04-01T13:20:54.146Z,67.21
2023-04-01T13:23:38.524Z,67.99
2023-04-01T13:26:20.236Z,67.75
2023-04-01T13:29:01.035Z,67.68
2023-04-01T13:32:05.054Z,66.33
2023-04-01T13:34:56.574Z,66.45
2023-04-01T13:37:44.155Z,65.16
2023-04-01T13:41:01.583Z,66.02
2023-04-01T13:43:39.054Z,67.31
2023-04-01T13:46:29.872Z,68.38
2023-04-01T13:49:25.972Z,68.88
2023-04-01T13:52:31.113Z,69.48
2023-04-01T13:55:28.784Z,70.51
2023-04-01T13:58:39.696Z,71.90
2023-04-01T14:01:19.678Z,72.83
2023-04-01T14:04:16.587Z,73.31
2023-04-01T14:07:02.799Z,73.67
2023-04-01T14:10:06.590Z,73.96
2023-04-01T14:12:47.086Z,73.36
2023-04-01T14:15:44.038Z,73.94
2023-04-01T14:18:47.698Z,74.28
2023-04-01T14:21:31.421Z,74.49
2023-04-01T14:24:22.459Z,74.84
2023-04-01T14:27:25.758Z,74.22
2023-04-01T14:30:29.197Z,73.73
2023-04-01T14:33:15.412Z,74.41
2023-04-01T14:35:57.781Z,74.65
2023-04-01T14:38:49.762Z,74.92
2023-04-01T14:41:36.457Z,75.12
2023-04-01T14:44:40.726Z,75.45
2023-04-01T14:47:46.216Z,75.22
2023-04-01T14:50:19.941Z,75.51
2023-04-01T14:52:59.863Z,76.42
2023-04-01T14:55:36.614Z,77.10
2023-04-01T14:58:13.674Z,77.30
2023-04-01T15:00:58.015Z,77.15
2023-04-01T15:03:32.750Z,77.12
2023-04-01T15:06:51.982Z,77.83
2023-04-01T15:09:37.862Z,78.18
2023-04-01T15:12:22.470Z,78.68
2023-04-01T15:15:24.920Z,78.91
2023-04-01T15:18:11.110Z,78.94
2023-04-01T15:21:08.800Z,78.85
2023-04-01T15:23:57.018Z,78.89
2023-04-01T15:27:00.373Z,79.28
2023-04-01T15:30:16.643Z,79.15
2023-04-01T15:33:05.687Z,79.31
2023-04-01T15:35:49.236Z,78.74
2023-04-01T15:38:35.066Z,78.21
2023-04-01T15:41:16.162Z,78.84
2023-04-01T15:43:49.437Z,79.34
2023-04-01T15:46:43.443Z,79.70
2023-04-01T15:49:38.449Z,80.14
2023-04-01T15:52:24.752Z,80.21
2023-04-01T15:55:16.008Z,80.45
2023-04-01T15:58:06.594Z,80.95
2023-04-01T16:00:49.410Z,81.00
2023-04-01T16:03:36.996Z,81.08
2023-04-01T16:06:51.296Z,80.83
2023-04-01T16:09:45.066Z,79.87
2023-04-01T16:12:22.773Z,79.97
2023-04-01T16:15:11.882Z,80.27
2023-04-01T16:18:09.086Z,80.26
2023-04-01T16:20:53.119Z,79.79
2023-04-01T16:23:32.068Z,79.26
2023-04-01T16:26:10.376Z,79.38
2023-04-01T16:28:56.159Z,78.92
2023-04-01T16:31:40.323Z,78.72
2023-04-01T16:34:19.495Z,79.51
2023-04-01T16:36:54.708Z,79.88
2023-04-01T16:39:41.724Z,79.97
2023-04-01T16:42:24.843Z,79.12
2023-04-01T16:45:01.579Z,78.89
2023-04-01T16:47:34.665Z,79.31
2023-04-01T16:50:17.242Z,79.80
2023-04-01T16:53:12.076Z,80.44
2023-04-01T16:55:53.776Z,80.97
2023-04-01T16:58:28.517Z,81.48
2023-04-01T17:01:05.390Z,82.19
2023-04-01T17:03:41.181Z,82.76
2023-04-01T17:06:27.163Z,83.57
2023-04-01T17:09:28.900Z,83.92
2023-04-01T17:12:12.656Z,84.37
2023-04-01T17:14:56.359Z,85.03
2023-04-01T17:17:44.449Z,85.87
2023-04-01T17:20:33.379Z,85.94
2023-04-01T17:23:13.288Z,85.95
2023-04-01T17:25:58.344Z,86.37
2023-04-01T17:28:46.895Z,86.82
2023-04-01T17:31:28.547Z,86.82
2023-04-01T17:34:25.026Z,86.70
2023-04-01T17:37:20.114Z,86.54
2023-04-01T17:40:01.583Z,86.18
2023-04-01T17:42:44.293Z,86.13
2023-04-01T17:45:26.118Z,85.45
2023-04-01T17:51:42.124Z,85.57
2023-04-01T17:54:27.512Z,85.52
2023-04-01T17:57:26.026Z,84.92
2023-04-01T18:00:04.203Z,84.21
2023-04-01T18:02:47.249Z,84.51
2023-04-01T18:05:42.581Z,84.30
2023-04-01T18:08:35.248Z,85.26
2023-04-01T18:11:19.626Z,85.81
2023-04-01T18:14:41.198Z,85.85
2023-04-01T18:17:26.584Z,85.91
2023-04-01T18:20:22.200Z,86.48
2023-04-01T18:22:59.877Z,87.11
2023-04-01T18:25:37.804Z,87.18
2023-04-01T18:28:34.839Z,87.67
2023-04-01T18:31:13.534Z,88.08
2023-04-01T18:33:55.982Z,87.74
2023-04-01T18:36:42.101Z,88.04
2023-04-01T18:39:17.889Z,87.80
2023-04-01T18:42:01.833Z,88.18
2023-04-01T18:44:45.274Z,88.33
2023-04-01T18:47:29.273Z,88.66
2023-04-01T18:50:08.220Z,88.89
2023-04-01T18:52:43.820Z,89.04
2023-04-01T18:55:31.692Z,88.69
2023-04-01T18:58:19.755Z,88.16
2023-04-01T19:00:57.539Z,88.12
2023-04-01T19:03:35.111Z,87.14
2023-04-01T19:06:18.986Z,85.41
2023-04-01T19:08:48.548Z,85.75
2023-04-01T19:11:34.186Z,85.56
2023-04-01T19:14:18.835Z,85.57
2023-04-01T19:17:03.134Z,86.08
2023-04-01T19:19:57.616Z,85.29
2023-04-01T19:22:51.950Z,85.08
2023-04-01T19:25:39.134Z,84.90
2023-04-01T19:28:33.429Z,85.52
2023-04-01T19:31:19.761Z,85.54
2023-04-01T19:34:05.930Z,84.60
2023-04-01T19:36:47.349Z,84.67
2023-04-01T19:39:37.078Z,85.11
2023-04-01T19:42:22.738Z,84.71
2023-04-01T19:45:13.600Z,84.94
2023-04-01T19:48:00.693Z,84.00
2023-04-01T19:50:40.519Z,85.03
2023-04-01T19:53:23.567Z,84.43
2023-04-01T19:56:04.175Z,84.02
2023-04-01T19:58:46.527Z,84.31
2023-04-01T20:01:29.626Z,84.15
2023-04-01T20:04:13.620Z,84.55
2023-04-01T20:06:53.396Z,84.88
2023-04-01T20:09:54.943Z,84.69
2023-04-01T20:12:41.814Z,84.75
2023-04-01T20:15:33.823Z,84.67
2023-04-01T20:18:09.475Z,84.62
2023-04-01T20:20:39.407Z,84.36
2023-04-01T20:23:37.150Z,83.51
2023-04-01T20:26:11.253Z,84.30
2023-04-01T20:28:49.596Z,85.46
2023-04-01T20:31:42.890Z,84.98
2023-04-01T20:34:28.033Z,85.20
2023-04-01T20:37:35.560Z,85.22
2023-04-01T20:40:37.215Z,84.87
2023-04-01T20:43:48.885Z,86.05
2023-04-01T20:46:24.561Z,86.40
2023-04-01T20:49:35.943Z,86.08
2023-04-01T20:52:24.487Z,86.59
2023-04-01T20:55:23.114Z,86.36
2023-04-01T20:58:08.514Z,86.17
2023-04-01T21:00:52.149Z,86.94
2023-04-01T21:03:46.542Z,87.21
2023-04-01T21:06:46.687Z,86.16
2023-04-01T21:09:39.614Z,85.95
2023-04-01T21:12:27.888Z,85.40
2023-04-01T21:15:18.468Z,86.03
2023-04-01T21:18:06.428Z,85.22
2023-04-01T21:21:10.407Z,85.38
2023-04-01T21:23:56.425Z,84.86
2023-04-01T21:26:44.238Z,85.09
2023-04-01T21:29:46.984Z,85.07
2023-04-01T21:32:45.858Z,85.20
2023-04-01T21:35:33.453Z,85.98
2023-04-01T21:38:21.061Z,84.92
2023-04-01T21:41:09.029Z,84.58
2023-04-01T21:44:07.591Z,84.16
2023-04-01T21:47:37.076Z,84.57
2023-04-01T21:50:44.273Z,83.99
2023-04-01T21:54:16.548Z,83.82
2023-04-01T21:57:23.740Z,83.97
2023-04-01T22:00:23.247Z,84.14
2023-04-01T22:03:45.865Z,83.88
2023-04-01T22:06:27.295Z,83.18
2023-04-01T22:09:11.558Z,82.83
2023-04-01T22:12:02.369Z,83.11
2023-04-01T22:14:41.282Z,83.42
2023-04-01T22:17:24.067Z,83.45
2023-04-01T22:20:10.213Z,83.61
2023-04-01T22:22:59.617Z,83.75
2023-04-01T22:25:37.972Z,83.29
2023-04-01T22:28:13.863Z,82.91
2023-04-01T22:30:50.982Z,83.55
2023-04-01T22:33:30.784Z,83.11
2023-04-01T22:36:12.652Z,84.34
2023-04-01T22:38:59.792Z,84.13
2023-04-01T22:41:49.127Z,83.83
2023-04-01T22:44:36.574Z,83.45
2023-04-01T22:47:15.984Z,83.65
2023-04-01T22:49:53.047Z,84.27
2023-04-01T22:52:32.586Z,84.30
2023-04-01T22:55:06.349Z,84.22
2023-04-01T22:57:46.786Z,84.49
2023-04-01T23:00:23.270Z,84.16
2023-04-01T23:03:13.637Z,84.37
2023-04-01T23:05:51.721Z,84.79
2023-04-01T23:09:00.869Z,84.71
2023-04-01T23:11:36.015Z,84.76
2023-04-01T23:14:45.224Z,84.78
2023-04-01T23:17:49.458Z,84.74
2023-04-01T23:20:34.061Z,84.49
2023-04-01T23:23:19.060Z,84.05
2023-04-01T23:25:59.288Z,84.19
2023-04-01T23:28:51.656Z,82.72
2023-04-01T23:31:39.632Z,82.82
2023-04-01T23:34:30.224Z,83.36
2023-04-01T23:37:04.896Z,83.33
2023-04-01T23:39:37.756Z,82.73
2023-04-01T23:42:09.731Z,83.33
2023-04-01T23:44:39.262Z,84.00
2023-04-01T23:47:14.171Z,83.55
2023-04-01T23:49:50.122Z,83.30
2023-04-01T23:52:26.151Z,83.36
2023-04-01T23:55:00.680Z,84.24
2023-04-01T23:57:34.499Z,85.03
